Weather reports worldwide

Advertisment
Cadiz, Spain (8452): temperature & dewpoint: 18.06.2018 16:00:00 - 24.06.2018 16:00:00 (CEST)Cadiz, Spain (8452): wind speed & gusts: 18.06.2018 16:00:00 - 24.06.2018 16:00:00 (CEST)Cadiz, Spain (8452): wind direction: 18.06.2018 16:00:00 - 24.06.2018 16:00:00 (CEST)Cadiz, Spain (8452): reduced air pressure: 18.06.2018 16:00:00 - 24.06.2018 16:00:00 (CEST)Cadiz, Spain (8452): precipitation: 18.06.2018 16:00:00 - 24.06.2018 16:00:00 (CEST)
Date & Time tt [°C] td [°C] ff [km/h] ff [kn] fx [km/h] fx [kn] dd ppp [hPa] rr [mm]
24.06.2018 16:00:00 23,8 18,7 19 10 33 18 SSW 1014,7 0,0
24.06.2018 15:00:00 23,7 18,3 18 10 27 15 SSW 1014,8 0,0
24.06.2018 14:00:00 23,6 18,2 18 10 29 16 SSW 1015,3 -
24.06.2018 13:00:00 23,1 18,4 16 9 27 14 SSW 1015,9 0,0
24.06.2018 12:00:00 23,6 18,2 12 6 22 12 S 1015,8 0,0
24.06.2018 11:00:00 23,9 18,3 7 4 13 7 S 1016,0 0,0
24.06.2018 10:00:00 22,9 18,6 7 4 15 8 SE 1015,5 0,0
24.06.2018 09:00:00 22,1 18,5 8 5 15 8 SSE 1015,2 0,0
24.06.2018 08:00:00 21,7 18,1 2 1 5 3 S 1014,9 -
24.06.2018 07:00:00 21,2 18,0 5 3 10 5 NNE 1014,6 0,0
24.06.2018 06:00:00 21,1 18,3 6 3 10 5 N 1014,2 0,0
24.06.2018 05:00:00 20,6 18,5 5 3 20 11 W 1014,0 0,0
24.06.2018 04:00:00 20,9 18,8 10 5 15 8 W 1014,2 0,0
24.06.2018 03:00:00 21,4 18,6 8 4 16 9 WSW 1014,8 0,0
24.06.2018 02:00:00 23,0 17,0 7 4 13 7 S 1014,8 -
24.06.2018 01:00:00 23,1 16,6 4 2 16 9 SW 1014,8 0,0
24.06.2018 00:00:00 23,8 17,1 9 5 13 7 SE 1014,7 0,0
23.06.2018 23:00:00 24,2 16,5 6 3 13 7 SE 1014,2 0,0
23.06.2018 22:00:00 23,7 16,2 4 2 18 10 W 1013,8 0,0
23.06.2018 21:00:00 23,9 16,9 10 5 21 12 W 1013,4 0,0
23.06.2018 20:00:00 24,0 17,2 15 8 22 12 W 1013,1 -
23.06.2018 19:00:00 24,2 17,2 15 8 28 15 W 1013,2 0,0
23.06.2018 18:00:00 25,6 17,2 17 9 28 15 W 1013,5 0,0
23.06.2018 17:00:00 25,6 16,7 16 9 25 14 W 1013,9 0,0
23.06.2018 16:00:00 26,6 16,2 16 9 23 13 WSW 1014,3 0,0
23.06.2018 15:00:00 26,7 15,4 13 7 23 13 W 1014,8 0,0
23.06.2018 14:00:00 27,3 15,6 13 7 31 17 W 1015,3 -
23.06.2018 13:00:00 28,4 14,6 26 14 40 22 E 1015,4 0,0
23.06.2018 12:00:00 26,2 16,5 5 3 11 6 ENE 1015,7 0,0
23.06.2018 11:00:00 24,3 16,8 6 3 10 6 NNW 1015,9 0,0
23.06.2018 10:00:00 23,2 15,8 6 3 8 4 NNE 1016,0 0,0
23.06.2018 09:00:00 21,9 17,7 2 1 8 4 NNE 1016,0 0,0
23.06.2018 08:00:00 20,0 18,3 3 2 8 5 E 1015,7 -
23.06.2018 07:00:00 20,1 18,8 4 2 9 5 E 1015,4 0,0
23.06.2018 06:00:00 20,6 19,3 5 3 7 4 NNE 1015,3 0,0
23.06.2018 05:00:00 20,3 18,8 5 3 9 5 NNW 1015,7 0,0
23.06.2018 04:00:00 20,4 18,7 5 3 12 6 WSW 1016,0 0,0
23.06.2018 03:00:00 20,8 18,9 5 3 11 6 W 1016,1 0,0
23.06.2018 02:00:00 21,5 19,3 3 2 7 4 NNW 1016,3 -
23.06.2018 01:00:00 21,5 18,8 4 2 7 4 N 1016,5 0,0
23.06.2018 00:00:00 21,2 18,5 2 1 11 6 W 1016,6 0,0
22.06.2018 23:00:00 21,2 18,5 9 5 14 8 W 1016,2 0,0
22.06.2018 22:00:00 21,3 18,3 11 6 22 12 W 1015,2 0,0
22.06.2018 21:00:00 22,2 18,2 13 7 22 12 WNW 1015,0 0,0
22.06.2018 20:00:00 22,6 17,9 15 8 23 13 W 1014,6 -
22.06.2018 19:00:00 23,2 18,3 14 8 29 15 W 1014,9 0,0
22.06.2018 18:00:00 23,2 18,3 17 9 27 15 W 1015,3 0,0
22.06.2018 17:00:00 23,1 18,2 18 10 28 15 WNW 1015,5 0,0
22.06.2018 16:00:00 22,2 18,4 19 10 30 16 W 1016,0 0,0
22.06.2018 15:00:00 23,3 18,2 19 11 30 16 W 1016,3 0,0
22.06.2018 14:00:00 25,5 17,7 14 7 22 12 WSW 1016,4 -
22.06.2018 13:00:00 25,5 16,6 12 6 17 9 WSW 1016,0 0,0
22.06.2018 12:00:00 24,2 17,5 3 1 14 7 WNW 1017,0 0,0
22.06.2018 11:00:00 23,4 18,9 5 3 8 4 SSW 1017,3 0,0
22.06.2018 10:00:00 23,1 19,1 3 1 10 5 ESE 1017,5 0,0
22.06.2018 09:00:00 22,7 19,3 2 1 10 6 E 1016,9 0,0
22.06.2018 08:00:00 21,0 18,8 8 4 11 6 SE 1016,4 -
22.06.2018 07:00:00 20,9 18,3 4 2 10 5 SSW 1016,9 0,0
22.06.2018 06:00:00 21,0 18,5 8 4 18 10 ESE 1016,2 0,0
22.06.2018 05:00:00 21,2 18,4 13 7 21 11 SSE 1016,9 0,0
22.06.2018 04:00:00 21,5 18,5 14 8 28 15 SSE 1016,8 0,0
22.06.2018 03:00:00 21,7 17,7 16 8 24 13 SSE 1017,1 0,0
22.06.2018 02:00:00 21,5 17,5 10 5 18 10 SSE 1017,4 -
22.06.2018 01:00:00 22,9 15,3 11 6 19 11 ESE 1017,9 0,0
22.06.2018 00:00:00 22,8 15,3 6 3 16 9 SSE 1017,5 0,0
21.06.2018 23:00:00 22,0 16,0 3 2 12 6 W 1017,0 0,0
21.06.2018 22:00:00 22,3 16,1 8 4 16 9 W 1016,5 0,0
21.06.2018 21:00:00 23,9 15,9 14 7 21 11 W 1015,9 0,0
21.06.2018 20:00:00 24,9 16,0 13 7 23 12 W 1015,6 -
21.06.2018 19:00:00 24,2 15,7 16 9 26 14 WSW 1015,6 0,0
21.06.2018 18:00:00 24,7 15,9 13 7 21 12 SW 1016,0 0,0
21.06.2018 17:00:00 25,3 16,1 17 9 24 13 WSW 1016,2 0,0
21.06.2018 16:00:00 24,9 15,5 15 8 22 12 SW 1016,5 0,0
21.06.2018 15:00:00 24,4 16,6 13 7 21 11 SSW 1016,8 0,0
21.06.2018 14:00:00 23,7 16,7 10 5 17 9 SSW 1017,1 -
21.06.2018 13:00:00 24,3 16,8 8 4 17 9 SSW 1017,2 0,0
21.06.2018 12:00:00 23,3 16,6 9 5 21 11 S 1017,3 0,0
21.06.2018 11:00:00 23,1 17,3 11 6 21 11 S 1017,2 0,0
21.06.2018 10:00:00 21,0 17,4 9 5 16 9 SSW 1017,2 0,0
21.06.2018 09:00:00 20,5 17,5 7 4 15 8 WSW 1016,8 0,0
21.06.2018 08:00:00 19,6 17,9 10 5 19 10 WNW 1016,3 -
21.06.2018 07:00:00 19,5 17,9 11 6 17 9 WSW 1015,3 0,0
21.06.2018 06:00:00 19,9 17,7 7 4 18 10 SSW 1015,7 0,0
21.06.2018 05:00:00 20,8 17,6 11 6 36 19 SSE 1015,8 0,0
21.06.2018 04:00:00 20,7 17,5 11 6 24 13 S 1016,3 0,0
21.06.2018 03:00:00 23,6 16,1 12 7 23 13 E 1016,3 0,0
21.06.2018 02:00:00 23,5 15,5 22 12 37 20 E 1016,3 -
21.06.2018 01:00:00 23,1 15,7 23 12 40 21 E 1016,4 0,0
21.06.2018 00:00:00 23,0 16,0 38 21 57 31 ESE 1016,7 0,0
20.06.2018 23:00:00 23,3 15,9 35 19 43 23 ESE 1015,9 0,0
20.06.2018 22:00:00 23,7 17,0 21 12 28 15 SE 1015,4 0,0
20.06.2018 21:00:00 25,8 16,4 10 6 17 9 ESE 1014,9 0,0
20.06.2018 20:00:00 24,9 18,3 3 2 16 9 NW 1014,8 -
20.06.2018 19:00:00 26,1 17,2 6 4 16 9 SSW 1014,8 0,0
20.06.2018 18:00:00 25,4 17,3 6 4 24 13 SW 1015,1 0,0
20.06.2018 17:00:00 25,2 16,9 13 7 19 10 SW 1015,4 0,0
20.06.2018 16:00:00 24,7 16,9 11 6 22 12 W 1015,9 0,0
20.06.2018 15:00:00 24,6 17,1 15 8 24 13 W 1016,4 0,0
20.06.2018 14:00:00 23,8 17,8 2 1 19 10 SW 1016,5 -
20.06.2018 13:00:00 24,0 17,9 10 5 25 14 SSW 1017,6 0,0
20.06.2018 12:00:00 22,4 17,1 15 8 24 13 SSW 1017,8 0,0
20.06.2018 11:00:00 25,0 16,4 8 4 18 10 SSE 1017,4 0,0
20.06.2018 10:00:00 23,5 15,3 8 4 44 24 SSW 1016,9 0,0
20.06.2018 09:00:00 22,6 15,7 19 10 37 20 E 1015,0 0,0
20.06.2018 08:00:00 21,8 15,9 19 11 34 18 E 1016,4 -
20.06.2018 07:00:00 21,5 15,1 17 9 36 19 SSE 1017,0 0,0
20.06.2018 06:00:00 21,7 15,1 18 10 - - ESE 1015,8 -
20.06.2018 05:00:00 21,7 15,3 17 9 36 19 SE 1016,1 0,0
20.06.2018 04:00:00 22,4 15,0 22 12 33 18 ESE 1015,9 0,0
20.06.2018 03:00:00 22,8 14,9 22 12 52 28 ESE 1016,0 0,0
20.06.2018 02:00:00 22,7 15,3 36 19 59 32 ESE 1015,5 -
20.06.2018 01:00:00 22,9 14,7 43 23 63 34 ESE 1015,6 0,0
20.06.2018 00:00:00 23,2 14,5 38 20 57 31 ESE 1015,6 0,0
19.06.2018 23:00:00 23,3 13,8 43 23 63 34 E 1014,9 0,0
19.06.2018 22:00:00 23,8 13,7 45 24 67 36 E 1014,7 0,0
19.06.2018 21:00:00 25,0 13,6 45 24 64 35 ESE 1014,8 0,0
19.06.2018 20:00:00 26,0 13,5 49 26 66 35 ESE 1014,9 -
19.06.2018 19:00:00 27,0 14,4 40 21 53 29 E 1014,7 0,0
19.06.2018 18:00:00 27,8 14,8 38 20 62 34 ESE 1015,1 0,0
19.06.2018 17:00:00 27,8 14,4 45 24 62 33 ESE 1015,6 0,0
19.06.2018 16:00:00 27,9 14,5 47 26 64 35 ESE 1016,1 0,0
19.06.2018 15:00:00 27,9 14,9 39 21 62 33 ESE 1016,6 0,0
19.06.2018 14:00:00 27,6 14,9 39 21 53 29 E 1017,1 -
19.06.2018 13:00:00 26,9 13,7 40 22 53 28 ESE 1017,5 0,0
19.06.2018 12:00:00 26,5 14,2 35 19 52 28 ESE 1017,7 0,0
19.06.2018 11:00:00 25,4 14,8 28 15 50 27 ESE 1017,9 0,0
19.06.2018 10:00:00 24,3 14,1 36 19 45 24 ESE 1018,2 0,0
19.06.2018 09:00:00 23,7 14,1 23 12 29 16 ESE 1018,0 0,0
19.06.2018 08:00:00 22,6 14,7 14 8 26 14 ESE 1017,9 -
19.06.2018 07:00:00 20,9 15,3 5 3 18 10 E 1017,6 0,0
19.06.2018 06:00:00 20,4 16,4 6 3 10 5 S 1017,5 0,0
19.06.2018 05:00:00 20,5 15,5 3 1 7 4 SW 1017,4 0,0
19.06.2018 04:00:00 21,2 16,0 3 2 8 4 SSE 1017,6 0,0
19.06.2018 03:00:00 21,7 16,2 8 5 16 9 S 1017,7 0,0
19.06.2018 02:00:00 21,5 15,6 5 3 11 6 S 1017,8 -
19.06.2018 01:00:00 21,1 16,3 3 1 20 11 SSW 1018,2 0,0
19.06.2018 00:00:00 21,1 17,3 16 8 26 14 S 1017,7 0,0
18.06.2018 23:00:00 20,8 17,8 19 10 28 15 S 1017,1 0,0
18.06.2018 22:00:00 20,5 18,1 15 8 31 17 S 1016,7 0,0
18.06.2018 21:00:00 21,4 17,8 14 7 34 18 S 1016,6 0,0
18.06.2018 20:00:00 22,5 17,9 13 7 33 18 SSW 1016,6 -
18.06.2018 19:00:00 22,2 18,2 23 12 40 22 S 1016,3 0,0
18.06.2018 18:00:00 22,5 17,6 20 11 48 26 SSW 1016,4 0,0
18.06.2018 17:00:00 22,8 16,4 19 10 45 24 SSW 1016,3 0,0
18.06.2018 16:00:00 25,6 18,5 19 10 47 25 S 1016,5 0,0

tt = temperature
td = dewpoint
ff = wind speed
fx = gusts
dd = wind direction
ppp = reduced air pressure
rr = precipitation

Next stations